Atlanta, Michigan
Current Conditions -  °F | °C
As of 9:53 PM on Saturday 22 Nov 2014 (Local Time) from KGLR Reporting Station
Moderate Fog Moderate Fog  
Wind Chill: 30°   Ceiling: 200
Heat Index: 37°   Visibility: 0.25mi
Dew Point: 37°   Wind: 10mph
Humidity: 100%   Direction: 230°SW
Pressure: 29.78"   Gusts: NA
Location:  45°N, 84.14°W
Report Text: KGLR 230253Z AUTO 23009KT 1/4SM FG VV002 03/03 A2978 RMK AO2 SLP097 T00280028 50004
Loading
Personal Weather Stations






























Interactive Weather Map New forecast layout! Learn more

10-Day Weather Forecast

Advertisements
Track Severe Weather on mobile